Flight Track Log - Related Links

Times and Time Zones

All times are in EST time to prevent confusion due to time zone crossing. See the N6510V flight status page for this flight to view local times or setup timezone preferences in your user account.

Time Position Orientation Groundspeed Altitude Reporting Facility
EST Latitude Longitude Course Direction KTS MPH feet Rate Location/Type
Thu 01:33:35 PM 35.6928 -78.6714 249° West 125 144 6,500  Level Washington Center
Thu 01:35:34 PM 35.6611 -78.7722 249° West 152 175 6,500  Level Washington Center
Thu 01:36:36 PM 35.6472 -78.8178 249° West 147 169 6,500  Level Washington Center
Thu 01:37:36 PM 35.6317 -78.8606 246° West 147 169 6,500 50 Level Washington Center
Thu 01:38:37 PM 35.6156 -78.9111 249° West 145 167 6,600  Climbing Washington Center
Thu 01:59:44 PM 35.2675 -79.9206 246° West 151 174 6,500 -5 Descending Atlanta Center
Thu 02:00:00 PM 35.4006 -79.5354 246° West  Level FlightAware Approximate
Thu 02:00:20 PM 35.2581 -79.9514 249° West 153 176 6,500  Level Atlanta Center
Thu 02:01:00 PM 35.3903 -79.5644 246° West  Level FlightAware Approximate
Thu 02:01:21 PM 35.2386 -80.0006 244° Southwest 157 181 6,500  Level Atlanta Center
Thu 02:02:00 PM 35.3799 -79.5934 246° West  Level FlightAware Approximate
Thu 02:02:22 PM 35.2217 -80.0497 247° West 152 175 6,500  Level Atlanta Center
Thu 02:03:00 PM 35.3695 -79.6223 246° West  Level FlightAware Approximate
Thu 02:03:23 PM 35.2064 -80.0964 248° West 151 174 6,500  Level Atlanta Center
Thu 02:04:00 PM 35.3591 -79.6513 246° West  Level FlightAware Approximate
Thu 02:04:24 PM 35.1892 -80.1453 247° West 151 174 6,500  Level Atlanta Center
Thu 02:06:00 PM 35.1516 -80.2138 236° Southwest  Level FlightAware Approximate
Thu 02:13:00 PM 35.0427 -80.5423 245° Southwest  Level FlightAware Approximate
Thu 02:14:00 PM 35.0258 -80.5894 248° West  Level FlightAware Approximate
Thu 02:15:00 PM 35.0167 -80.6167 248° West  Level FlightAware Approximate
Thu 02:16:00 PM 35.0174 -80.6220 248° West  Level Estimated
Thu 02:17:00 PM 35.0167 -80.6167 248° West  Level FlightAware Approximate
Thu 02:18:00 PM 35.0174 -80.6220 248° West  Level Estimated
Thu 02:19:00 PM 35.0167 -80.6167 248° West  Level FlightAware Approximate
Thu 02:20:00 PM 35.0174 -80.6220 248° West  Level Estimated
Thu 02:21:00 PM 35.0167 -80.6167 248° West  Level FlightAware Approximate
Thu 02:22:00 PM 35.0174 -80.6220 248° West  Level Estimated
Thu 02:23:00 PM 35.0167 -80.6167 248° West  Level FlightAware Approximate
Thu 02:24:00 PM 35.0174 -80.6220 248° West  Level Estimated
Thu 02:25:00 PM 35.0167 -80.6167 248° West  Level FlightAware Approximate
Thu 02:26:00 PM 35.0174 -80.6220 248° West  Level Estimated
Thu 02:27:00 PM 35.0167 -80.6167 248° West  Level FlightAware Approximate
Thu 02:28:00 PM 35.0174 -80.6220 248° West  Level Estimated
Thu 02:29:00 PM 35.0167 -80.6167 248° West  Level FlightAware Approximate
Thu 02:30:00 PM 35.0174 -80.6220 248° West  Level Estimated
Thu 02:31:00 PM 35.0167 -80.6167 248° West  Level FlightAware Approximate
Thu 02:32:00 PM 35.0174 -80.6220 248° West  Level Estimated

Login

Don't have an account? Register now (free) for customized features, flight alerts, and more!